| time (UTC) | temp C | wind direction | speed KPH | gust KPH | rain 1hr cm | rain 24hr cm | rain mn cm | humidity % | barometer mb |
| 20260903073005 | 24 | 5 | 0.0 | 1.6 | 0.00 | 0.00 | 0.00 | 92 | 1014.9 |
| 20260903072006 | 24 | 4 | 0.0 | 3.2 | 0.00 | 0.00 | 0.00 | 92 | 1014.9 |
| 20260903071006 | 24 | 4 | 0.0 | 1.6 | 0.00 | 0.00 | 0.00 | 92 | 1014.8 |
| 20260903070006 | 24 | 3 | 0.0 | 1.6 | 0.00 | 0.00 | 0.00 | 93 | 1014.8 |
| 20260903065005 | 24 | 2 | 0.0 | 0.0 | 0.00 | 0.00 | 0.00 | 92 | 1014.8 |
| 20260903064026 | 24 | 360 | 0.0 | 0.0 | 0.00 | 0.00 | 0.00 | 92 | 1014.8 |
| 20260903063026 | 24 | 3 | 0.0 | 0.0 | 0.00 | 0.00 | 0.00 | 91 | 1014.8 |
| 20260903062005 | 25 | 4 | 0.0 | 0.0 | 0.00 | 0.00 | 0.00 | 90 | 1014.9 |
| 20260903061006 | 25 | 7 | 0.0 | 3.2 | 0.00 | 0.00 | 0.00 | 91 | 1014.8 |
| 20260903060005 | 25 | 7 | 1.6 | 4.8 | 0.00 | 0.00 | 0.00 | 91 | 1014.9 |
| 20260903055006 | 25 | 6 | 1.6 | 3.2 | 0.00 | 0.00 | 0.00 | 91 | 1014.9 |
| 20260903054005 | 25 | 5 | 0.0 | 3.2 | 0.00 | 0.00 | 0.00 | 91 | 1015.0 |
| 20260903053005 | 25 | 4 | 0.0 | 1.6 | 0.00 | 0.00 | 0.00 | 91 | 1015.0 |
| 20260903052006 | 25 | 7 | 0.0 | 0.0 | 0.00 | 0.00 | 0.00 | 89 | 1015.1 |
| 20260903051006 | 25 | 8 | 0.0 | 0.0 | 0.00 | 0.00 | 0.00 | 90 | 1015.0 |
| 20260903050005 | 25 | 11 | 0.0 | 0.0 | 0.00 | 0.00 | 0.00 | 89 | 1014.9 |
| 20260903045005 | 25 | 15 | 0.0 | 0.0 | 0.00 | 0.00 | 0.00 | 88 | 1015.0 |
| 20260903044006 | 25 | 18 | 0.0 | 0.0 | 0.00 | 0.00 | 0.00 | 88 | 1014.9 |
| 20260903043005 | 25 | 17 | 0.0 | 0.0 | 0.00 | 0.00 | 0.00 | 87 | 1014.9 |
| 20260903042026 | 25 | 19 | 0.0 | 0.0 | 0.00 | 0.00 | 0.00 | 87 | 1014.9 |
| 20260903041005 | 25 | 19 | 0.0 | 0.0 | 0.00 | 0.00 | 0.00 | 86 | 1014.8 |
| 20260903040008 | 26 | 343 | 0.0 | 0.0 | 0.00 | 0.00 | 0.00 | 85 | 1014.9 |
| 20260903035006 | 26 | 16 | 0.0 | 0.0 | 0.00 | 0.00 | 0.00 | 85 | 1014.9 |
| 20260903034006 | 26 | 18 | 0.0 | 0.0 | 0.00 | 0.00 | 0.00 | 84 | 1014.9 |
| 20260903033026 | 26 | 17 | 0.0 | 0.0 | 0.00 | 0.00 | 0.00 | 83 | 1015.0 |
| 20260903032005 | 26 | 19 | 0.0 | 1.6 | 0.00 | 0.00 | 0.00 | 82 | 1015.0 |
| 20260903031028 | 27 | 14 | 0.0 | 3.2 | 0.00 | 0.00 | 0.00 | 81 | 1015.0 |
| 20260903030005 | 27 | 19 | 0.0 | 3.2 | 0.00 | 0.00 | 0.00 | 79 | 1015.1 |
| 20260903025006 | 27 | 17 | 1.6 | 4.8 | 0.00 | 0.00 | 0.00 | 78 | 1015.2 |
| 20260903024007 | 27 | 18 | 0.0 | 0.0 | 0.00 | 0.00 | 0.00 | 76 | 1015.1 |
| 20260903023006 | 27 | 18 | 0.0 | 4.8 | 0.00 | 0.00 | 0.00 | 75 | 1015.2 |
| 20260903022027 | 27 | 23 | 0.0 | 0.0 | 0.00 | 0.00 | 0.00 | 76 | 1015.2 |
| 20260903021005 | 28 | 25 | 0.0 | 0.0 | 0.00 | 0.00 | 0.00 | 72 | 1015.2 |
| 20260903020006 | 28 | 23 | 0.0 | 0.0 | 0.00 | 0.00 | 0.00 | 72 | 1015.2 |
| 20260903015006 | 28 | 24 | 0.0 | 0.0 | 0.00 | 0.00 | 0.00 | 71 | 1015.2 |
| 20260903014027 | 28 | 343 | 0.0 | 0.0 | 0.00 | 0.00 | 0.00 | 71 | 1015.1 |
| 20260903013005 | 28 | 343 | 0.0 | 0.0 | 0.00 | 0.00 | 0.00 | 71 | 1015.1 |
| 20260903012028 | 28 | 343 | 0.0 | 0.0 | 0.00 | 0.00 | 0.00 | 70 | 1014.9 |
| 20260903011005 | 29 | 343 | 0.0 | 0.0 | 0.00 | 0.00 | 0.00 | 70 | 1014.8 |
| 20260903010006 | 29 | 343 | 0.0 | 0.0 | 0.00 | 0.00 | 0.00 | 70 | 1014.7 |
| 20260903005027 | 29 | 343 | 0.0 | 0.0 | 0.00 | 0.00 | 0.00 | 69 | 1014.7 |
| 20260903004006 | 30 | 343 | 0.0 | 0.0 | 0.00 | 0.00 | 0.00 | 68 | 1014.5 |
| 20260903003005 | 30 | 343 | 0.0 | 0.0 | 0.00 | 0.00 | 0.00 | 67 | 1014.5 |
| 20260903002028 | 30 | 343 | 0.0 | 0.0 | 0.00 | 0.00 | 0.00 | 66 | 1014.5 |
| 20260903001027 | 31 | 161 | 0.0 | 0.0 | 0.00 | 0.00 | 0.00 | 65 | 1014.4 |
| 20260903000005 | 31 | 169 | 0.0 | 0.0 | 0.00 | 0.00 | 0.00 | 64 | 1014.5 |
| 20260902235006 | 31 | 169 | 0.0 | 0.0 | 0.00 | 0.00 | 0.00 | 63 | 1014.6 |
| 20260902234005 | 31 | 168 | 0.0 | 0.0 | 0.00 | 0.00 | 0.00 | 63 | 1014.6 |
| 20260902233027 | 32 | 169 | 0.0 | 0.0 | 0.00 | 0.00 | 0.00 | 62 | 1014.7 |
| 20260902232005 | 32 | 169 | 0.0 | 0.0 | 0.00 | 0.00 | 0.00 | 61 | 1014.7 |
| 20260902231006 | 32 | 169 | 0.0 | 1.6 | 0.00 | 0.00 | 0.00 | 60 | 1014.7 |
| 20260902230005 | 33 | 169 | 0.0 | 3.2 | 0.00 | 0.00 | 0.00 | 58 | 1014.8 |
| 20260902225006 | 33 | 192 | 3.2 | 4.8 | 0.00 | 0.00 | 0.00 | 56 | 1014.7 |
| 20260902224005 | 34 | 143 | 0.0 | 4.8 | 0.00 | 0.00 | 0.00 | 56 | 1014.8 |
| 20260902223006 | 35 | 149 | 0.0 | 4.8 | 0.00 | 0.00 | 0.00 | 54 | 1014.8 |
| 20260902222005 | 35 | 149 | 0.0 | 4.8 | 0.00 | 0.00 | 0.00 | 53 | 1014.8 |
| 20260902221005 | 35 | 216 | 0.0 | 6.4 | 0.00 | 0.00 | 0.00 | 53 | 1014.9 |
| 20260902220027 | 35 | 233 | 1.6 | 6.4 | 0.00 | 0.00 | 0.00 | 53 | 1014.9 |
| 20260902215005 | 35 | 287 | 1.6 | 6.4 | 0.00 | 0.00 | 0.00 | 51 | 1014.9 |
| 20260902214005 | 35 | 165 | 4.8 | 8.0 | 0.00 | 0.00 | 0.00 | 50 | 1014.9 |
| 20260902213027 | 35 | 228 | 1.6 | 4.8 | 0.00 | 0.00 | 0.00 | 50 | 1014.9 |
| 20260902212027 | 35 | 167 | 4.8 | 9.7 | 0.00 | 0.00 | 0.00 | 51 | 1015.0 |
| 20260902211007 | 35 | 267 | 1.6 | 11.3 | 0.00 | 0.00 | 0.00 | 52 | 1015.0 |
| 20260902210049 | 35 | 257 | 1.6 | 8.0 | 0.00 | 0.00 | 0.00 | 52 | 1015.0 |
| 20260902205005 | 35 | 297 | 1.6 | 4.8 | 0.00 | 0.00 | 0.00 | 52 | 1015.1 |
| 20260902204027 | 34 | 164 | 4.8 | 14.5 | 0.00 | 0.00 | 0.00 | 53 | 1015.1 |
| 20260902203006 | 35 | 173 | 6.4 | 11.3 | 0.00 | 0.00 | 0.00 | 51 | 1015.2 |
| 20260902202048 | 34 | 134 | 1.6 | 8.0 | 0.00 | 0.00 | 0.00 | 56 | 1015.2 |
| 20260902201006 | 35 | 175 | 6.4 | 14.5 | 0.00 | 0.00 | 0.00 | 53 | 1015.3 |
| 20260902200006 | 35 | 197 | 4.8 | 9.7 | 0.00 | 0.00 | 0.00 | 51 | 1015.4 |
| 20260902195005 | 35 | 231 | 1.6 | 14.5 | 0.00 | 0.00 | 0.00 | 52 | 1015.7 |
| 20260902194005 | 35 | 249 | 1.6 | 6.4 | 0.00 | 0.00 | 0.00 | 52 | 1015.7 |
| 20260902193006 | 35 | 145 | 8.0 | 12.9 | 0.00 | 0.00 | 0.00 | 54 | 1015.8 |
| 20260902192028 | 35 | 180 | 3.2 | 6.4 | 0.00 | 0.00 | 0.00 | 56 | 1016.0 |
| 20260902191005 | 34 | 182 | 1.6 | 11.3 | 0.00 | 0.00 | 0.00 | 55 | 1016.0 |
| 20260902190006 | 33 | 166 | 4.8 | 11.3 | 0.00 | 0.00 | 0.00 | 55 | 1016.1 |
| 20260902185006 | 35 | 173 | 8.0 | 14.5 | 0.00 | 0.00 | 0.00 | 53 | 1016.1 |
| 20260902184005 | 35 | 213 | 3.2 | 11.3 | 0.00 | 0.00 | 0.00 | 55 | 1016.2 |
| 20260902183027 | 34 | 269 | 3.2 | 8.0 | 0.00 | 0.00 | 0.00 | 56 | 1016.2 |
| 20260902182005 | 33 | 186 | 4.8 | 12.9 | 0.00 | 0.00 | 0.00 | 57 | 1016.2 |
| 20260902181005 | 34 | 158 | 6.4 | 12.9 | 0.00 | 0.00 | 0.00 | 57 | 1016.3 |
| 20260902180007 | 35 | 182 | 3.2 | 8.0 | 0.00 | 0.00 | 0.00 | 57 | 1016.5 |
| 20260902174005 | 34 | 231 | 1.6 | 11.3 | 0.00 | 0.00 | 0.00 | 60 | 1016.8 |
| 20260902173006 | 33 | 199 | 6.4 | 11.3 | 0.00 | 0.00 | 0.00 | 60 | 1016.9 |
| 20260902172027 | 34 | 139 | 8.0 | 17.7 | 0.00 | 0.00 | 0.00 | 58 | 1016.9 |
| 20260902171005 | 33 | 61 | 0.0 | 4.8 | 0.00 | 0.00 | 0.00 | 61 | 1017.1 |
| 20260902170006 | 33 | 170 | 1.6 | 8.0 | 0.00 | 0.00 | 0.00 | 63 | 1017.3 |
| 20260902165005 | 33 | 326 | 1.6 | 6.4 | 0.00 | 0.00 | 0.00 | 66 | 1017.2 |
| 20260902164005 | 32 | 140 | 0.0 | 11.3 | 0.00 | 0.00 | 0.00 | 69 | 1017.3 |
| 20260902163006 | 32 | 147 | 1.6 | 9.7 | 0.00 | 0.00 | 0.00 | 68 | 1017.5 |
| 20260902162005 | 32 | 303 | 0.0 | 4.8 | 0.00 | 0.00 | 0.00 | 72 | 1017.7 |
| 20260902161006 | 31 | 288 | 1.6 | 4.8 | 0.00 | 0.00 | 0.00 | 71 | 1017.8 |
| 20260902160008 | 31 | 221 | 0.0 | 4.8 | 0.00 | 0.00 | 0.00 | 72 | 1017.9 |
| 20260902155006 | 31 | 193 | 3.2 | 6.4 | 0.00 | 0.00 | 0.00 | 73 | 1018.0 |
| 20260902154006 | 30 | 179 | 0.0 | 4.8 | 0.00 | 0.00 | 0.00 | 72 | 1017.9 |
| 20260902153005 | 30 | 177 | 0.0 | 3.2 | 0.00 | 0.00 | 0.00 | 75 | 1017.9 |
| 20260902152006 | 30 | 162 | 0.0 | 3.2 | 0.00 | 0.00 | 0.00 | 75 | 1017.8 |
| 20260902151006 | 29 | 188 | 1.6 | 6.4 | 0.00 | 0.00 | 0.00 | 78 | 1017.8 |
| 20260902150005 | 29 | 201 | 0.0 | 8.0 | 0.00 | 0.00 | 0.00 | 78 | 1017.7 |
| 20260902145006 | 28 | 195 | 3.2 | 8.0 | 0.00 | 0.00 | 0.00 | 79 | 1017.7 |
| 20260902144005 | 28 | 172 | 1.6 | 6.4 | 0.00 | 0.00 | 0.00 | 80 | 1017.7 |
| 20260902143028 | 27 | 220 | 0.0 | 3.2 | 0.00 | 0.00 | 0.00 | 80 | 1017.7 |
| 20260902142006 | 27 | 209 | 0.0 | 8.0 | 0.00 | 0.00 | 0.00 | 81 | 1017.8 |
| 20260902141006 | 27 | 175 | 1.6 | 8.0 | 0.00 | 0.00 | 0.00 | 82 | 1017.7 |
| 20260902140005 | 26 | 158 | 3.2 | 4.8 | 0.00 | 0.00 | 0.00 | 84 | 1017.7 |
| 20260902135027 | 26 | 185 | 0.0 | 8.0 | 0.00 | 0.00 | 0.00 | 87 | 1017.6 |
| 20260902134027 | 25 | 198 | 1.6 | 6.4 | 0.00 | 0.00 | 0.00 | 87 | 1017.6 |
| 20260902133005 | 25 | 344 | 0.0 | 4.8 | 0.00 | 0.00 | 0.00 | 88 | 1017.6 |
| 20260902132006 | 24 | 4 | 1.6 | 6.4 | 0.00 | 0.00 | 0.00 | 90 | 1017.6 |
| 20260902131005 | 23 | 342 | 3.2 | 4.8 | 0.00 | 0.00 | 0.00 | 91 | 1017.7 |
| 20260902130005 | 23 | 149 | 1.6 | 6.4 | 0.00 | 0.00 | 0.00 | 92 | 1017.5 |
| 20260902125049 | 23 | 354 | 3.2 | 6.4 | 0.00 | 0.00 | 0.00 | 93 | 1017.4 |
| 20260902124027 | 23 | 156 | 1.6 | 4.8 | 0.00 | 0.00 | 0.00 | 95 | 1017.5 |
| 20260902123006 | 23 | 156 | 1.6 | 4.8 | 0.00 | 0.00 | 0.00 | 95 | 1017.5 |
| 20260902122006 | 22 | 156 | 1.6 | 4.8 | 0.00 | 0.00 | 0.00 | 95 | 1017.3 |
| 20260902121006 | 22 | 172 | 1.6 | 3.2 | 0.00 | 0.00 | 0.00 | 95 | 1017.3 |
| 20260902120027 | 22 | 172 | 0.0 | 0.0 | 0.00 | 0.00 | 0.00 | 96 | 1017.2 |
| 20260902115006 | 22 | 172 | 0.0 | 0.0 | 0.00 | 0.00 | 0.00 | 96 | 1017.2 |
| 20260902114005 | 22 | 172 | 0.0 | 0.0 | 0.00 | 0.00 | 0.00 | 96 | 1017.0 |
| 20260902113006 | 22 | 172 | 0.0 | 1.6 | 0.00 | 0.00 | 0.00 | 96 | 1016.9 |
| 20260902112005 | 22 | 172 | 1.6 | 3.2 | 0.00 | 0.00 | 0.00 | 96 | 1016.8 |
| 20260902111006 | 22 | 172 | 0.0 | 3.2 | 0.00 | 0.00 | 0.00 | 95 | 1016.8 |
| 20260902110008 | 22 | 172 | 1.6 | 4.8 | 0.00 | 0.00 | 0.00 | 95 | 1016.7 |
| 20260902105005 | 22 | 172 | 1.6 | 4.8 | 0.00 | 0.00 | 0.00 | 95 | 1016.7 |
| 20260902104006 | 22 | 173 | 0.0 | 3.2 | 0.00 | 0.00 | 0.00 | 95 | 1016.6 |
| 20260902103006 | 22 | 173 | 0.0 | 0.0 | 0.00 | 0.00 | 0.00 | 95 | 1016.6 |
| 20260902102006 | 22 | 173 | 0.0 | 0.0 | 0.00 | 0.00 | 0.00 | 95 | 1016.5 |
| 20260902101005 | 22 | 173 | 0.0 | 0.0 | 0.00 | 0.00 | 0.00 | 95 | 1016.5 |
| 20260902100006 | 22 | 173 | 0.0 | 0.0 | 0.00 | 0.00 | 0.00 | 96 | 1016.4 |
| 20260902095027 | 22 | 173 | 0.0 | 0.0 | 0.00 | 0.00 | 0.00 | 95 | 1016.3 |
| 20260902094006 | 22 | 173 | 0.0 | 0.0 | 0.00 | 0.00 | 0.00 | 96 | 1016.3 |
| 20260902093005 | 22 | 173 | 0.0 | 0.0 | 0.00 | 0.00 | 0.00 | 96 | 1016.3 |
| 20260902092006 | 22 | 173 | 0.0 | 0.0 | 0.00 | 0.00 | 0.00 | 96 | 1016.3 |
| 20260902091005 | 22 | 173 | 0.0 | 0.0 | 0.00 | 0.00 | 0.00 | 96 | 1016.2 |
| 20260902090006 | 22 | 173 | 0.0 | 0.0 | 0.00 | 0.00 | 0.00 | 95 | 1016.2 |
| 20260902085006 | 22 | 173 | 0.0 | 0.0 | 0.00 | 0.00 | 0.00 | 95 | 1016.2 |
| 20260902084006 | 22 | 173 | 0.0 | 0.0 | 0.00 | 0.00 | 0.00 | 94 | 1016.0 |
| 20260902083006 | 22 | 173 | 0.0 | 0.0 | 0.00 | 0.00 | 0.00 | 95 | 1016.0 |
| 20260902082005 | 22 | 173 | 0.0 | 0.0 | 0.00 | 0.00 | 0.00 | 94 | 1016.0 |
| 20260902081005 | 22 | 173 | 0.0 | 0.0 | 0.00 | 0.00 | 0.00 | 94 | 1016.1 |
| 20260902080006 | 22 | 173 | 0.0 | 0.0 | 0.00 | 0.00 | 0.00 | 93 | 1016.0 |
| 20260902075005 | 23 | 173 | 0.0 | 0.0 | 0.00 | 0.00 | 0.00 | 93 | 1016.0 |
| 20260902074006 | 23 | 173 | 0.0 | 0.0 | 0.00 | 0.00 | 0.00 | 93 | 1016.0 |